Palau, Palau
Current Conditions -  °F | °C
As of 10:50 PM on Wednesday 28 Jan 2015 (Local Time) from PTKR Reporting Station
Few Clouds Few Clouds  
Wind Chill: 26°   Ceiling: Unl
Heat Index: 28°   Visibility: 15mi
Dew Point: 23°   Wind: 0mph
Humidity: 85%   Direction: NA
Pressure: 29.83"   Gusts: NA
Location:  7.33°N, 134.48°E
Report Text: PTKR 281350Z 00000KT 15SM FEW350 26/23 A2983 RMK SLP102T02610234
Loading
Personal Weather Stations






























Interactive Weather Map New forecast layout! Learn more

10-Day Weather Forecast

Advertisements
Track Severe Weather on mobile